M/V Martha T — WDD5337 — position and weather

sailwx.info

Track history (hours):
 
Tides and Currents Weather Stations Pressure Air Temp Water Temp Dewpoint Dewpoint Depression Visibility Wind Speed Wind Dir Waves Ship Positions

M/V Martha T

Owner: The Tug Martha T, L.L.C., Sugarland, TX. More information available from US FCC via Universal Licensing System and Coast Guard Vessel Documentation Center.

Last reported at 2017-Sep-21 13:54 UTC. Time now 2017-Sep-22 08:36 UTC.
Position N 29°46' W 095°06'.

Type: Tug. MMSI: 367156850.

Date/timePositionNaut miles runAvg speedWind from/ knotsBaromVisibWave heightAir tempDewpointWater temp
2017-Sep-21 13:54N 29°46' W 095°06'2 4.9
2017-Sep-21 13:30N 29°44' W 095°07'6 6.7
2017-Sep-21 12:39N 29°43' W 095°13'0 0.5
2017-Sep-21 11:51N 29°44' W 095°14'0 0.2
2017-Sep-21 11:29N 29°44' W 095°14'3 3.7
2017-Sep-21 10:46N 29°45' W 095°11'1 4.4
2017-Sep-21 10:30N 29°45' W 095°10'4 4.0
2017-Sep-21 09:38N 29°45' W 095°06'1 4.4
2017-Sep-21 09:30N 29°46' W 095°05'2 0.8
2017-Sep-21 07:20N 29°47' W 095°04'1 4.3
2017-Sep-21 07:00N 29°46' W 095°05'3 2.7
2017-Sep-21 05:54N 29°44' W 095°08'0 0.0
2017-Sep-21 05:28N 29°44' W 095°08'0 0.0
2017-Sep-21 04:58N 29°44' W 095°08'0 0.0
2017-Sep-21 04:20N 29°44' W 095°08'0 0.0
2017-Sep-21 03:57N 29°44' W 095°08'0 0.0
2017-Sep-21 03:08N 29°44' W 095°08'0 0.0
2017-Sep-21 02:59N 29°44' W 095°08'0 0.0
2017-Sep-21 02:28N 29°44' W 095°08'0 1.0
2017-Sep-21 02:00N 29°44' W 095°08'0 0.0
2017-Sep-21 01:31N 29°44' W 095°08'0 0.0
2017-Sep-21 01:00N 29°44' W 095°08'0 0.0
2017-Sep-21 00:30N 29°44' W 095°08'3 4.4
2017-Sep-20 23:49N 29°46' W 095°05'1 0.2
2017-Sep-20 20:10N 29°46' W 095°06'0 0.0
2017-Sep-20 19:55N 29°46' W 095°06'0 0.0
2017-Sep-20 19:29N 29°46' W 095°06'0 0.0
2017-Sep-20 18:58N 29°46' W 095°06'0 0.0
2017-Sep-20 18:18N 29°46' W 095°06'0 0.0
2017-Sep-20 17:56N 29°46' W 095°06'0 0.0
2017-Sep-20 17:30N 29°46' W 095°06'0 0.0
2017-Sep-20 17:01N 29°46' W 095°06'0 0.0
2017-Sep-20 16:28N 29°46' W 095°06'0 0.0
2017-Sep-20 16:00N 29°46' W 095°06'0 0.0
2017-Sep-20 15:28N 29°46' W 095°06'0 0.1
2017-Sep-20 15:00N 29°46' W 095°06'2 1.5
2017-Sep-20 13:22N 29°44' W 095°08'0 0.1
2017-Sep-20 13:00N 29°44' W 095°08'0 0.0
2017-Sep-20 11:27N 29°44' W 095°08'4 6.1
2017-Sep-20 10:52N 29°47' W 095°05'1 2.2
2017-Sep-20 10:21N 29°47' W 095°04'1 4.2
2017-Sep-20 10:00N 29°46' W 095°05'1 0.3
2017-Sep-20 05:57N 29°46' W 095°06'2 4.4
2017-Sep-20 05:29N 29°44' W 095°07'4 4.0
2017-Sep-20 04:29N 29°45' W 095°11'2 4.1
2017-Sep-20 04:00N 29°44' W 095°09'4 5.0
2017-Sep-20 03:06N 29°46' W 095°05'1 1.3
2017-Sep-20 02:14N 29°47' W 095°04'0 0.0
2017-Sep-20 02:00N 29°47' W 095°04'1 2.7
2017-Sep-20 01:30N 29°46' W 095°05'4 6.4
2017-Sep-20 00:52N 29°44' W 095°09'5 0.7
2017-Sep-19 17:23N 29°43' W 095°15'0 0.4
2017-Sep-19 16:59N 29°43' W 095°15'0 0.0
2017-Sep-19 16:30N 29°43' W 095°15'0 0.0
2017-Sep-19 15:59N 29°43' W 095°15'0 0.0
2017-Sep-19 15:27N 29°43' W 095°15'0 0.0
2017-Sep-19 14:59N 29°43' W 095°15'0 0.0
2017-Sep-19 13:52N 29°43' W 095°15'0 0.0
2017-Sep-19 11:52N 29°43' W 095°15'0 0.0
2017-Sep-19 11:29N 29°43' W 095°15'1 2.0
2017-Sep-19 10:51N 29°44' W 095°13'2 6.3
2017-Sep-19 10:27N 29°45' W 095°11'6 5.7
2017-Sep-19 09:27N 29°47' W 095°05'1 2.7
2017-Sep-19 09:00N 29°47' W 095°04'2 4.1
2017-Sep-19 08:25N 29°46' W 095°06'0 0.2
2017-Sep-19 06:48N 29°46' W 095°06'0 0.0
2017-Sep-19 05:20N 29°46' W 095°06'0 0.0
2017-Sep-19 05:00N 29°46' W 095°06'0 0.0
2017-Sep-19 04:30N 29°46' W 095°06'0 0.0
2017-Sep-19 02:43N 29°46' W 095°06'0 0.0
2017-Sep-19 02:17N 29°46' W 095°06'0 0.0
2017-Sep-19 01:56N 29°46' W 095°06'0 0.0
2017-Sep-19 01:12N 29°46' W 095°06'0 0.0
2017-Sep-19 00:47N 29°46' W 095°06'0 0.0
2017-Sep-19 00:14N 29°46' W 095°06'0 0.0
2017-Sep-18 23:08N 29°46' W 095°06'0 0.0
2017-Sep-18 22:50N 29°46' W 095°06'0 0.0
2017-Sep-18 21:38N 29°46' W 095°06'0 0.0
2017-Sep-18 21:21N 29°46' W 095°06'0 0.0
2017-Sep-18 11:28N 29°46' W 095°06'2 4.1
2017-Sep-18 10:54N 29°47' W 095°04'0 0.0
2017-Sep-18 09:51N 29°47' W 095°04'1 1.4
2017-Sep-18 08:58N 29°46' W 095°05'1 0.1
2017-Sep-17 06:39N 29°47' W 095°04'0 0.0
2017-Sep-17 06:16N 29°47' W 095°04'0 0.0
2017-Sep-17 05:59N 29°47' W 095°04'2 3.4
2017-Sep-17 05:29N 29°46' W 095°05'1 1.3
2017-Sep-17 04:33N 29°46' W 095°06'0 0.0
2017-Sep-17 04:28N 29°46' W 095°06'0 0.0
2017-Sep-17 03:27N 29°46' W 095°06'0 0.0
2017-Sep-17 02:59N 29°46' W 095°06'0 0.0
2017-Sep-17 01:41N 29°46' W 095°06'0 0.0
2017-Sep-17 01:30N 29°46' W 095°06'2 3.6
2017-Sep-17 00:58N 29°44' W 095°07'5 0.2
2017-Sep-15 16:11N 29°44' W 095°12'1 4.1
2017-Sep-15 15:49N 29°45' W 095°11'2 6.6
2017-Sep-15 15:29N 29°44' W 095°08'4 0.3
2017-Sep-15 00:12N 29°47' W 095°05'1 4.9
2017-Sep-14 23:56N 29°46' W 095°06'0 0.0
2017-Sep-14 12:29N 29°46' W 095°06'1 0.1
2017-Sep-14 03:20N 29°46' W 095°05'3 6.5
2017-Sep-14 02:57N 29°44' W 095°08'5 1.9
2017-Sep-14 00:30N 29°47' W 095°04'0 0.0
2017-Sep-14 00:00N 29°47' W 095°04'0 0.2
2017-Sep-13 23:29N 29°47' W 095°04'0 0.2
2017-Sep-13 22:59N 29°47' W 095°04'0 0.0
2017-Sep-13 22:30N 29°47' W 095°04'1 0.4
2017-Sep-13 19:03N 29°46' W 095°05'1 4.1
2017-Sep-13 18:48N 29°46' W 095°05'2 5.7
2017-Sep-13 18:29N 29°44' W 095°07'1 0.8
2017-Sep-13 17:38N 29°44' W 095°08'0 0.1
2017-Sep-13 17:16N 29°44' W 095°08'3 0.5
2017-Sep-13 11:21N 29°46' W 095°05'4 7.4
2017-Sep-13 10:53N 29°44' W 095°08'2 5.2
2017-Sep-13 10:24N 29°45' W 095°11'1 0.5
2017-Sep-13 09:20N 29°45' W 095°11'1 2.3
2017-Sep-13 08:57N 29°45' W 095°10'2 4.3
2017-Sep-13 08:30N 29°44' W 095°08'3 4.8
2017-Sep-13 07:57N 29°45' W 095°06'3 4.2
2017-Sep-13 07:21N 29°47' W 095°04'1 0.9
2017-Sep-13 06:27N 29°47' W 095°05'0 0.3
2017-Sep-13 04:59N 29°46' W 095°05'1 1.4
2017-Sep-13 04:28N 29°46' W 095°05'1 0.2
2017-Sep-13 01:20N 29°46' W 095°06'1 1.3
2017-Sep-13 00:51N 29°46' W 095°06'0 0.0
2017-Sep-13 00:30N 29°46' W 095°06'0 0.0
2017-Sep-12 23:57N 29°46' W 095°06'1 0.5
2017-Sep-12 22:46N 29°46' W 095°06'0 0.3
2017-Sep-12 22:29N 29°46' W 095°06'0 0.0
2017-Sep-12 15:31N 29°46' W 095°06'1 0.6
2017-Sep-12 13:26N 29°46' W 095°05'0 0.3
2017-Sep-12 12:59N 29°46' W 095°05'1 2.9
2017-Sep-12 12:30N 29°47' W 095°04'2 3.9
2017-Sep-12 11:53N 29°46' W 095°06'0 1.0
2017-Sep-12 11:29N 29°46' W 095°06'0 0.0
2017-Sep-12 10:59N 29°46' W 095°06'0 0.0
2017-Sep-12 10:25N 29°46' W 095°06'0 0.0
2017-Sep-12 09:48N 29°46' W 095°06'0 0.2
2017-Sep-12 09:28N 29°46' W 095°06'3 4.7
2017-Sep-12 08:53N 29°44' W 095°08'3 6.8
2017-Sep-12 08:30N 29°45' W 095°11'4 1.5
2017-Sep-12 06:01N 29°43' W 095°15'0 6.6
2017-Sep-12 06:00N 29°43' W 095°15'3 5.9
2017-Sep-12 05:30N 29°44' W 095°12'3 5.8
2017-Sep-12 05:00N 29°44' W 095°09'3 6.4
2017-Sep-12 04:30N 29°46' W 095°05'2 4.7
2017-Sep-12 04:00N 29°48' W 095°04'2 3.3
2017-Sep-12 03:30N 29°46' W 095°05'  
Track history (hours):
 
Tides and Currents Weather Stations Pressure Air Temp Water Temp Dewpoint Dewpoint Depression Visibility Wind Speed Wind Dir Waves Ship Positions

M/V Martha T

Owner: The Tug Martha T, L.L.C., Sugarland, TX. More information available from US FCC via Universal Licensing System and Coast Guard Vessel Documentation Center.

Last reported at 2017-Sep-21 13:54 UTC. Time now 2017-Sep-22 08:36 UTC.
Position N 29°46' W 095°06'.

Type: Tug. MMSI: 367156850.

Date/timePositionNaut miles runAvg speedWind from/ knotsBaromVisibWave heightAir tempDewpointWater temp
2017-Sep-21 13:54N 29°46' W 095°06'2 4.9
2017-Sep-21 13:30N 29°44' W 095°07'6 6.7
2017-Sep-21 12:39N 29°43' W 095°13'0 0.5
2017-Sep-21 11:51N 29°44' W 095°14'0 0.2
2017-Sep-21 11:29N 29°44' W 095°14'3 3.7
2017-Sep-21 10:46N 29°45' W 095°11'1 4.4
2017-Sep-21 10:30N 29°45' W 095°10'4 4.0
2017-Sep-21 09:38N 29°45' W 095°06'1 4.4
2017-Sep-21 09:30N 29°46' W 095°05'2 0.8
2017-Sep-21 07:20N 29°47' W 095°04'1 4.3
2017-Sep-21 07:00N 29°46' W 095°05'3 2.7
2017-Sep-21 05:54N 29°44' W 095°08'0 0.0
2017-Sep-21 05:28N 29°44' W 095°08'0 0.0
2017-Sep-21 04:58N 29°44' W 095°08'0 0.0
2017-Sep-21 04:20N 29°44' W 095°08'0 0.0
2017-Sep-21 03:57N 29°44' W 095°08'0 0.0
2017-Sep-21 03:08N 29°44' W 095°08'0 0.0
2017-Sep-21 02:59N 29°44' W 095°08'0 0.0
2017-Sep-21 02:28N 29°44' W 095°08'0 1.0
2017-Sep-21 02:00N 29°44' W 095°08'0 0.0
2017-Sep-21 01:31N 29°44' W 095°08'0 0.0
2017-Sep-21 01:00N 29°44' W 095°08'0 0.0
2017-Sep-21 00:30N 29°44' W 095°08'3 4.4
2017-Sep-20 23:49N 29°46' W 095°05'1 0.2
2017-Sep-20 20:10N 29°46' W 095°06'0 0.0
2017-Sep-20 19:55N 29°46' W 095°06'0 0.0
2017-Sep-20 19:29N 29°46' W 095°06'0 0.0
2017-Sep-20 18:58N 29°46' W 095°06'0 0.0
2017-Sep-20 18:18N 29°46' W 095°06'0 0.0
2017-Sep-20 17:56N 29°46' W 095°06'0 0.0
2017-Sep-20 17:30N 29°46' W 095°06'0 0.0
2017-Sep-20 17:01N 29°46' W 095°06'0 0.0
2017-Sep-20 16:28N 29°46' W 095°06'0 0.0
2017-Sep-20 16:00N 29°46' W 095°06'0 0.0
2017-Sep-20 15:28N 29°46' W 095°06'0 0.1
2017-Sep-20 15:00N 29°46' W 095°06'2 1.5
2017-Sep-20 13:22N 29°44' W 095°08'0 0.1
2017-Sep-20 13:00N 29°44' W 095°08'0 0.0
2017-Sep-20 11:27N 29°44' W 095°08'4 6.1
2017-Sep-20 10:52N 29°47' W 095°05'1 2.2
2017-Sep-20 10:21N 29°47' W 095°04'1 4.2
2017-Sep-20 10:00N 29°46' W 095°05'1 0.3
2017-Sep-20 05:57N 29°46' W 095°06'2 4.4
2017-Sep-20 05:29N 29°44' W 095°07'4 4.0
2017-Sep-20 04:29N 29°45' W 095°11'2 4.1
2017-Sep-20 04:00N 29°44' W 095°09'4 5.0
2017-Sep-20 03:06N 29°46' W 095°05'1 1.3
2017-Sep-20 02:14N 29°47' W 095°04'0 0.0
2017-Sep-20 02:00N 29°47' W 095°04'1 2.7
2017-Sep-20 01:30N 29°46' W 095°05'4 6.4
2017-Sep-20 00:52N 29°44' W 095°09'5 0.7
2017-Sep-19 17:23N 29°43' W 095°15'0 0.4
2017-Sep-19 16:59N 29°43' W 095°15'0 0.0
2017-Sep-19 16:30N 29°43' W 095°15'0 0.0
2017-Sep-19 15:59N 29°43' W 095°15'0 0.0
2017-Sep-19 15:27N 29°43' W 095°15'0 0.0
2017-Sep-19 14:59N 29°43' W 095°15'0 0.0
2017-Sep-19 13:52N 29°43' W 095°15'0 0.0
2017-Sep-19 11:52N 29°43' W 095°15'0 0.0
2017-Sep-19 11:29N 29°43' W 095°15'1 2.0
2017-Sep-19 10:51N 29°44' W 095°13'2 6.3
2017-Sep-19 10:27N 29°45' W 095°11'6 5.7
2017-Sep-19 09:27N 29°47' W 095°05'1 2.7
2017-Sep-19 09:00N 29°47' W 095°04'2 4.1
2017-Sep-19 08:25N 29°46' W 095°06'0 0.2
2017-Sep-19 06:48N 29°46' W 095°06'0 0.0
2017-Sep-19 05:20N 29°46' W 095°06'0 0.0
2017-Sep-19 05:00N 29°46' W 095°06'0 0.0
2017-Sep-19 04:30N 29°46' W 095°06'0 0.0
2017-Sep-19 02:43N 29°46' W 095°06'0 0.0
2017-Sep-19 02:17N 29°46' W 095°06'0 0.0
2017-Sep-19 01:56N 29°46' W 095°06'0 0.0
2017-Sep-19 01:12N 29°46' W 095°06'0 0.0
2017-Sep-19 00:47N 29°46' W 095°06'0 0.0
2017-Sep-19 00:14N 29°46' W 095°06'0 0.0
2017-Sep-18 23:08N 29°46' W 095°06'0 0.0
2017-Sep-18 22:50N 29°46' W 095°06'0 0.0
2017-Sep-18 21:38N 29°46' W 095°06'0 0.0
2017-Sep-18 21:21N 29°46' W 095°06'0 0.0
2017-Sep-18 11:28N 29°46' W 095°06'2 4.1
2017-Sep-18 10:54N 29°47' W 095°04'0 0.0
2017-Sep-18 09:51N 29°47' W 095°04'1 1.4
2017-Sep-18 08:58N 29°46' W 095°05'1 0.1
2017-Sep-17 06:39N 29°47' W 095°04'0 0.0
2017-Sep-17 06:16N 29°47' W 095°04'0 0.0
2017-Sep-17 05:59N 29°47' W 095°04'2 3.4
2017-Sep-17 05:29N 29°46' W 095°05'1 1.3
2017-Sep-17 04:33N 29°46' W 095°06'0 0.0
2017-Sep-17 04:28N 29°46' W 095°06'0 0.0
2017-Sep-17 03:27N 29°46' W 095°06'0 0.0
2017-Sep-17 02:59N 29°46' W 095°06'0 0.0
2017-Sep-17 01:41N 29°46' W 095°06'0 0.0
2017-Sep-17 01:30N 29°46' W 095°06'2 3.6
2017-Sep-17 00:58N 29°44' W 095°07'5 0.2
2017-Sep-15 16:11N 29°44' W 095°12'1 4.1
2017-Sep-15 15:49N 29°45' W 095°11'2 6.6
2017-Sep-15 15:29N 29°44' W 095°08'4 0.3
2017-Sep-15 00:12N 29°47' W 095°05'1 4.9
2017-Sep-14 23:56N 29°46' W 095°06'0 0.0
2017-Sep-14 12:29N 29°46' W 095°06'1 0.1
2017-Sep-14 03:20N 29°46' W 095°05'3 6.5
2017-Sep-14 02:57N 29°44' W 095°08'5 1.9
2017-Sep-14 00:30N 29°47' W 095°04'0 0.0
2017-Sep-14 00:00N 29°47' W 095°04'0 0.2
2017-Sep-13 23:29N 29°47' W 095°04'0 0.2
2017-Sep-13 22:59N 29°47' W 095°04'0 0.0
2017-Sep-13 22:30N 29°47' W 095°04'1 0.4
2017-Sep-13 19:03N 29°46' W 095°05'1 4.1
2017-Sep-13 18:48N 29°46' W 095°05'2 5.7
2017-Sep-13 18:29N 29°44' W 095°07'1 0.8
2017-Sep-13 17:38N 29°44' W 095°08'0 0.1
2017-Sep-13 17:16N 29°44' W 095°08'3 0.5
2017-Sep-13 11:21N 29°46' W 095°05'4 7.4
2017-Sep-13 10:53N 29°44' W 095°08'2 5.2
2017-Sep-13 10:24N 29°45' W 095°11'1 0.5
2017-Sep-13 09:20N 29°45' W 095°11'1 2.3
2017-Sep-13 08:57N 29°45' W 095°10'2 4.3
2017-Sep-13 08:30N 29°44' W 095°08'3 4.8
2017-Sep-13 07:57N 29°45' W 095°06'3 4.2
2017-Sep-13 07:21N 29°47' W 095°04'1 0.9
2017-Sep-13 06:27N 29°47' W 095°05'0 0.3
2017-Sep-13 04:59N 29°46' W 095°05'1 1.4
2017-Sep-13 04:28N 29°46' W 095°05'1 0.2
2017-Sep-13 01:20N 29°46' W 095°06'1 1.3
2017-Sep-13 00:51N 29°46' W 095°06'0 0.0
2017-Sep-13 00:30N 29°46' W 095°06'0 0.0
2017-Sep-12 23:57N 29°46' W 095°06'1 0.5
2017-Sep-12 22:46N 29°46' W 095°06'0 0.3
2017-Sep-12 22:29N 29°46' W 095°06'0 0.0
2017-Sep-12 15:31N 29°46' W 095°06'1 0.6
2017-Sep-12 13:26N 29°46' W 095°05'0 0.3
2017-Sep-12 12:59N 29°46' W 095°05'1 2.9
2017-Sep-12 12:30N 29°47' W 095°04'2 3.9
2017-Sep-12 11:53N 29°46' W 095°06'0 1.0
2017-Sep-12 11:29N 29°46' W 095°06'0 0.0
2017-Sep-12 10:59N 29°46' W 095°06'0 0.0
2017-Sep-12 10:25N 29°46' W 095°06'0 0.0
2017-Sep-12 09:48N 29°46' W 095°06'0 0.2
2017-Sep-12 09:28N 29°46' W 095°06'3 4.7
2017-Sep-12 08:53N 29°44' W 095°08'3 6.8
2017-Sep-12 08:30N 29°45' W 095°11'4 1.5
2017-Sep-12 06:01N 29°43' W 095°15'0 6.6
2017-Sep-12 06:00N 29°43' W 095°15'3 5.9
2017-Sep-12 05:30N 29°44' W 095°12'3 5.8
2017-Sep-12 05:00N 29°44' W 095°09'3 6.4
2017-Sep-12 04:30N 29°46' W 095°05'2 4.7
2017-Sep-12 04:00N 29°48' W 095°04'2 3.3
2017-Sep-12 03:30N 29°46' W 095°05'  

Dump ship's entire track history